createdAt,value
2023-05-08T00:03:28.290Z,19.10
2023-05-08T00:08:31.373Z,19.00
2023-05-08T00:13:34.236Z,19.00
2023-05-08T00:18:38.609Z,19.00
2023-05-08T00:23:41.525Z,19.00
2023-05-08T00:28:44.658Z,19.00
2023-05-08T00:33:48.850Z,18.90
2023-05-08T00:38:52.062Z,18.80
2023-05-08T00:43:55.199Z,19.00
2023-05-08T00:48:59.953Z,18.90
2023-05-08T00:54:03.465Z,19.00
2023-05-08T00:59:10.956Z,19.00
2023-05-08T01:04:16.052Z,19.10
2023-05-08T01:09:19.063Z,19.00
2023-05-08T01:14:30.509Z,18.90
2023-05-08T01:20:06.188Z,18.90
2023-05-08T01:25:40.708Z,19.00
2023-05-08T01:31:12.846Z,19.00
2023-05-08T01:36:30.174Z,19.00
2023-05-08T01:41:34.176Z,19.00
2023-05-08T01:46:37.616Z,19.00
2023-05-08T01:51:46.806Z,18.80
2023-05-08T01:56:51.397Z,18.90
2023-05-08T02:01:57.334Z,18.70
2023-05-08T02:07:02.815Z,18.80
2023-05-08T02:12:08.964Z,18.70
2023-05-08T02:17:13.679Z,18.80
2023-05-08T02:22:19.054Z,18.80
2023-05-08T02:27:23.876Z,18.80
2023-05-08T02:32:27.970Z,18.80
2023-05-08T02:37:34.346Z,18.80
2023-05-08T02:42:37.481Z,18.80
2023-05-08T02:47:46.956Z,18.80
2023-05-08T02:52:55.355Z,18.90
2023-05-08T02:58:05.699Z,18.90
2023-05-08T03:03:13.673Z,18.80
2023-05-08T03:08:24.935Z,18.80
2023-05-08T03:13:32.248Z,18.60
2023-05-08T03:18:42.511Z,18.30
2023-05-08T03:23:49.092Z,18.10
2023-05-08T03:28:53.406Z,18.30
2023-05-08T03:34:01.252Z,18.30
2023-05-08T03:39:06.913Z,18.00
2023-05-08T03:44:10.265Z,18.30
2023-05-08T03:49:15.862Z,18.40
2023-05-08T03:54:25.260Z,18.50
2023-05-08T03:59:39.408Z,18.40
2023-05-08T04:04:45.096Z,18.40
2023-05-08T04:10:00.569Z,18.50
2023-05-08T04:15:08.671Z,18.60
2023-05-08T04:20:19.400Z,18.50
2023-05-08T04:25:24.561Z,18.50
2023-05-08T04:30:28.284Z,18.40
2023-05-08T04:35:31.484Z,18.20
2023-05-08T04:40:35.788Z,18.20
2023-05-08T04:45:40.083Z,18.00
2023-05-08T04:50:43.181Z,18.10
2023-05-08T04:55:48.119Z,18.20
2023-05-08T05:00:51.702Z,18.40
2023-05-08T05:05:59.086Z,18.50
2023-05-08T05:11:03.566Z,18.60
2023-05-08T05:16:07.436Z,18.50
2023-05-08T05:21:11.453Z,18.60
2023-05-08T05:26:15.724Z,18.70
2023-05-08T05:31:18.827Z,18.80
2023-05-08T05:36:22.527Z,18.70
2023-05-08T05:41:26.832Z,18.70
2023-05-08T05:46:32.574Z,18.60
2023-05-08T05:51:37.965Z,18.70
2023-05-08T05:56:42.746Z,18.70
2023-05-08T06:01:48.038Z,18.60
2023-05-08T06:06:50.967Z,18.70
2023-05-08T06:11:55.459Z,18.70
2023-05-08T06:16:59.986Z,18.70
2023-05-08T06:22:02.993Z,18.70
2023-05-08T06:27:07.231Z,18.70
2023-05-08T06:32:10.102Z,18.70
2023-05-08T06:37:12.998Z,18.70
2023-05-08T06:42:17.163Z,18.60
2023-05-08T06:47:22.181Z,18.60
2023-05-08T06:52:25.611Z,18.70
2023-05-08T06:57:36.062Z,18.60
2023-05-08T07:02:39.434Z,18.60
2023-05-08T07:07:42.685Z,18.70
2023-05-08T07:12:47.084Z,18.60
2023-05-08T07:17:50.069Z,18.60
2023-05-08T07:22:53.156Z,18.70
2023-05-08T07:27:58.712Z,18.80
2023-05-08T07:33:04.055Z,18.80
2023-05-08T07:38:07.070Z,19.00
2023-05-08T07:43:11.234Z,19.00
2023-05-08T07:48:14.110Z,19.00
2023-05-08T07:53:17.010Z,19.00
2023-05-08T07:58:23.324Z,19.00
2023-05-08T08:03:26.765Z,18.80
2023-05-08T08:08:29.886Z,18.90
2023-05-08T08:13:34.270Z,19.10
2023-05-08T08:18:37.668Z,18.80
2023-05-08T08:23:40.610Z,19.10
2023-05-08T08:28:45.012Z,19.30
2023-05-08T08:33:47.858Z,19.30
2023-05-08T08:38:50.810Z,19.40
2023-05-08T08:43:55.980Z,19.40
2023-05-08T08:48:59.708Z,19.40
2023-05-08T08:54:08.893Z,19.40
2023-05-08T08:59:14.626Z,19.20
2023-05-08T09:04:18.473Z,19.40
2023-05-08T09:09:21.677Z,19.60
2023-05-08T09:14:26.993Z,19.70
2023-05-08T09:19:30.014Z,19.70
2023-05-08T09:24:58.583Z,19.90
2023-05-08T09:30:05.191Z,20.00
2023-05-08T09:35:09.880Z,20.00
2023-05-08T09:40:21.546Z,20.30
2023-05-08T09:45:31.172Z,20.10
2023-05-08T09:50:34.288Z,20.10
2023-05-08T09:55:48.269Z,19.90
2023-05-08T10:00:53.558Z,19.90
2023-05-08T10:06:13.343Z,19.80
2023-05-08T10:11:17.193Z,19.70
2023-05-08T10:16:23.467Z,19.50
2023-05-08T10:21:29.500Z,19.60
2023-05-08T10:26:37.563Z,19.60
2023-05-08T10:31:44.029Z,19.60
2023-05-08T10:36:48.334Z,19.70
2023-05-08T10:41:51.671Z,19.70
2023-05-08T10:47:01.216Z,19.50
2023-05-08T10:52:17.207Z,19.50
2023-05-08T10:57:20.228Z,19.40
2023-05-08T11:02:30.292Z,19.20
2023-05-08T11:07:54.510Z,18.90
2023-05-08T11:12:58.714Z,18.80
2023-05-08T11:18:05.400Z,19.10
2023-05-08T11:23:23.077Z,19.30
2023-05-08T11:28:25.972Z,19.30
2023-05-08T11:33:34.345Z,19.40
2023-05-08T11:38:38.454Z,19.40
2023-05-08T11:43:59.625Z,19.60
2023-05-08T11:49:03.940Z,19.90
2023-05-08T11:54:07.067Z,19.70
2023-05-08T11:59:10.502Z,19.70
2023-05-08T12:04:14.966Z,19.80
2023-05-08T12:09:20.423Z,20.00
2023-05-08T12:14:24.690Z,20.00
2023-05-08T12:20:10.158Z,20.10
2023-05-08T12:25:13.316Z,20.00
2023-05-08T12:30:17.887Z,20.20
2023-05-08T12:35:24.143Z,20.20
2023-05-08T12:40:28.381Z,20.50
2023-05-08T12:45:34.205Z,20.60
2023-05-08T12:50:40.081Z,20.60
2023-05-08T12:55:52.796Z,21.00
2023-05-08T13:01:05.510Z,20.80
2023-05-08T13:06:21.609Z,21.10
2023-05-08T13:11:33.014Z,21.40
2023-05-08T13:16:43.617Z,21.40
2023-05-08T13:21:48.151Z,21.70
2023-05-08T13:26:51.057Z,22.00
2023-05-08T13:31:54.055Z,22.00
2023-05-08T13:36:58.451Z,21.60
2023-05-08T13:42:01.293Z,21.60
2023-05-08T13:47:04.793Z,21.60
2023-05-08T13:52:08.982Z,21.40
2023-05-08T13:57:12.648Z,21.30
2023-05-08T14:02:15.706Z,21.60
2023-05-08T14:07:20.016Z,21.70
2023-05-08T14:12:28.981Z,21.60
2023-05-08T14:17:31.999Z,21.70
2023-05-08T14:22:36.285Z,21.80
2023-05-08T14:27:39.176Z,21.30
2023-05-08T14:32:47.984Z,21.40
2023-05-08T14:37:52.247Z,21.30
2023-05-08T14:42:55.150Z,21.40
2023-05-08T14:47:58.122Z,20.70
2023-05-08T14:53:02.527Z,20.80
2023-05-08T14:58:05.563Z,20.80
2023-05-08T15:03:08.754Z,20.90
2023-05-08T15:08:13.065Z,20.90
2023-05-08T15:13:16.062Z,20.90
2023-05-08T15:18:18.916Z,21.00
2023-05-08T15:23:24.239Z,21.10
2023-05-08T15:28:27.173Z,21.00
2023-05-08T15:33:30.046Z,21.20
2023-05-08T15:38:34.228Z,21.10
2023-05-08T15:43:38.802Z,21.20
2023-05-08T15:48:41.673Z,21.10
2023-05-08T15:53:45.876Z,21.20
2023-05-08T15:58:48.723Z,21.30
2023-05-08T16:03:51.652Z,21.30
2023-05-08T16:08:55.904Z,21.40
2023-05-08T16:13:59.005Z,21.40
2023-05-08T16:19:15.895Z,21.40
2023-05-08T16:24:20.870Z,21.50
2023-05-08T16:29:36.965Z,21.80
2023-05-08T16:34:39.890Z,21.80
2023-05-08T16:39:44.113Z,21.80
2023-05-08T16:44:47.049Z,21.70
2023-05-08T16:49:49.934Z,22.10
2023-05-08T16:55:11.482Z,21.80
2023-05-08T17:00:15.512Z,21.80
2023-05-08T17:05:18.463Z,21.50
2023-05-08T17:10:22.936Z,21.60
2023-05-08T17:15:25.843Z,21.80
2023-05-08T17:20:28.863Z,22.00
2023-05-08T17:25:34.161Z,21.80
2023-05-08T17:30:37.005Z,21.60
2023-05-08T17:35:41.968Z,21.60
2023-05-08T17:40:46.885Z,21.60
2023-05-08T17:45:49.821Z,21.60
2023-05-08T17:50:52.724Z,21.60
2023-05-08T17:56:07.123Z,21.60
2023-05-08T18:01:29.454Z,21.50
2023-05-08T18:07:03.956Z,21.40
2023-05-08T18:12:08.813Z,21.60
2023-05-08T18:17:19.380Z,21.70
2023-05-08T18:22:22.456Z,21.70
2023-05-08T18:27:26.673Z,21.60
2023-05-08T18:32:30.074Z,21.70
2023-05-08T18:37:35.169Z,21.60
2023-05-08T18:42:39.535Z,21.60
2023-05-08T18:47:42.593Z,21.60
2023-05-08T18:52:45.566Z,21.50
2023-05-08T18:57:49.759Z,21.40
2023-05-08T19:02:52.716Z,21.30
2023-05-08T19:07:55.816Z,21.20
2023-05-08T19:13:02.026Z,21.20
2023-05-08T19:18:15.006Z,21.00
2023-05-08T19:23:18.286Z,21.00
2023-05-08T19:28:22.515Z,21.00
2023-05-08T19:33:25.407Z,20.90
2023-05-08T19:38:37.131Z,20.90
2023-05-08T19:43:41.308Z,20.80
2023-05-08T19:48:44.200Z,20.80
2023-05-08T19:53:47.097Z,20.60
2023-05-08T19:58:51.299Z,20.60
2023-05-08T20:03:54.277Z,20.50
2023-05-08T20:08:57.297Z,20.50
2023-05-08T20:14:01.708Z,20.50
2023-05-08T20:19:05.046Z,20.60
2023-05-08T20:24:08.129Z,20.40
2023-05-08T20:29:12.542Z,20.20
2023-05-08T20:34:15.453Z,20.10
2023-05-08T20:39:18.361Z,20.00
2023-05-08T20:44:22.586Z,20.10
2023-05-08T20:49:26.749Z,19.90
2023-05-08T20:54:30.504Z,19.90
2023-05-08T20:59:34.685Z,19.90
2023-05-08T21:04:38.115Z,20.00
2023-05-08T21:09:41.020Z,19.90
2023-05-08T21:14:45.504Z,19.90
2023-05-08T21:19:48.387Z,19.90
2023-05-08T21:24:51.233Z,19.90
2023-05-08T21:29:55.451Z,19.70
2023-05-08T21:34:58.348Z,19.80
2023-05-08T21:40:01.318Z,19.90
2023-05-08T21:45:07.157Z,19.90
2023-05-08T21:50:10.901Z,19.90
2023-05-08T21:55:14.043Z,20.00
2023-05-08T22:00:20.069Z,20.00
2023-05-08T22:05:24.442Z,19.90
2023-05-08T22:10:27.345Z,19.80
2023-05-08T22:15:32.420Z,19.80
2023-05-08T22:20:42.579Z,19.70
2023-05-08T22:25:45.707Z,19.60
2023-05-08T22:30:49.908Z,19.70
2023-05-08T22:35:52.793Z,19.60
2023-05-08T22:40:57.404Z,19.40
2023-05-08T22:46:02.228Z,19.40
2023-05-08T22:51:05.747Z,19.20
2023-05-08T22:56:08.861Z,19.30
2023-05-08T23:01:14.298Z,19.40
2023-05-08T23:06:17.223Z,19.30
2023-05-08T23:11:21.262Z,19.40
2023-05-08T23:16:25.770Z,19.40
2023-05-08T23:21:28.936Z,19.30
2023-05-08T23:26:31.836Z,19.20
2023-05-08T23:31:36.159Z,19.20
2023-05-08T23:36:39.023Z,19.40
2023-05-08T23:41:41.883Z,19.30
2023-05-08T23:46:46.289Z,19.40
2023-05-08T23:51:49.225Z,19.40
2023-05-08T23:56:52.104Z,19.30
